This is the latest recevied weather packets stored in our database for station/object N0QV. If no packets are shown the sender has not sent any weather packets the latest 10 day(s).
| Time | Temp. | Humidity | Pressure | Rain* | Wind** | Luminosity | Snow |
|---|---|---|---|---|---|---|---|
| 1778096207 | 10° C | 40% | 1017.2 hPa | 0 mm | - | 884 W/m² | - |
| 1778095904 | 8.89° C | 42% | 1017.3 hPa | 0 mm | - | 587 W/m² | - |
| 1778095600 | 8.89° C | 42% | 1017.5 hPa | 0 mm | - | 356 W/m² | - |
| 1778095296 | 8.33° C | 43% | 1017.2 hPa | 0 mm | - | 318 W/m² | - |
| 1778094994 | 8.89° C | 45% | 1017.3 hPa | 0 mm | - | 262 W/m² | - |
| 1778094689 | 8.89° C | 45% | 1017.4 hPa | 0 mm | - | 705 W/m² | - |
| 1778094387 | 8.33° C | 43% | 1017.6 hPa | 0 mm | - | 402 W/m² | - |
| 1778094084 | 7.78° C | 45% | 1017.5 hPa | 0 mm | - | 788 W/m² | - |
| 1778093781 | 8.33° C | 43% | 1017.4 hPa | 0 mm | - | 357 W/m² | - |
| 1778093477 | 7.78° C | 46% | 1017.5 hPa | 0 mm | - | 875 W/m² | - |
| 1778093174 | 8.33° C | 43% | 1017.5 hPa | 0 mm | - | 312 W/m² | - |
| 1778092872 | 7.78° C | 44% | 1017.7 hPa | 0 mm | - | 412 W/m² | - |
| 1778092568 | 7.78° C | 44% | 1017.6 hPa | 0 mm | - | 408 W/m² | - |
| 1778092264 | 7.78° C | 44% | 1017.6 hPa | 0 mm | - | 355 W/m² | - |
| 1778091962 | 7.78° C | 46% | 1017.6 hPa | 0 mm | - | 518 W/m² | - |
| 1778091659 | 7.78° C | 44% | 1017.7 hPa | 0 mm | - | 320 W/m² | - |
| 1778091357 | 7.78° C | 47% | 1017.8 hPa | 0 mm | - | 313 W/m² | - |
| 1778091053 | 7.78° C | 45% | 1017.9 hPa | 0 mm | - | 338 W/m² | - |
| 1778090750 | 7.22° C | 46% | 1017.9 hPa | 0 mm | - | 264 W/m² | - |
| 1778090447 | 7.22° C | 46% | 1017.9 hPa | 0 mm | - | 217 W/m² | - |
| 1778090143 | 7.22° C | 48% | 1017.8 hPa | 0 mm | - | 261 W/m² | - |
| 1778089839 | 7.22° C | 49% | 1017.9 hPa | 0 mm | - | 323 W/m² | - |
| 1778089538 | 6.67° C | 51% | 1018 hPa | 0 mm | - | 282 W/m² | - |
| 1778089234 | 6.11° C | 49% | 1017.8 hPa | 0 mm | - | 150 W/m² | - |
| 1778088932 | 6.11° C | 50% | 1018 hPa | 0 mm | - | 133 W/m² | - |
* Rain latest hour (hover to see other rain measurements)
** Current wind speed in m/s (hover to see current wind gust speed)